sensor_id;sensor_type;location;lat;lon;timestamp;pressure;altitude;pressure_sealevel;temperature;humidity
49645;BME280;36494;50.730;-1.932;2023-03-03T00:01:19;102153.27;;;2.36;100.00
49645;BME280;36494;50.730;-1.932;2023-03-03T00:03:44;102157.44;;;2.35;100.00
49645;BME280;36494;50.730;-1.932;2023-03-03T00:06:11;102157.52;;;2.29;100.00
49645;BME280;36494;50.730;-1.932;2023-03-03T00:08:35;102157.60;;;2.27;100.00
49645;BME280;36494;50.730;-1.932;2023-03-03T00:11:01;102153.23;;;2.23;100.00
49645;BME280;36494;50.730;-1.932;2023-03-03T00:13:26;102149.30;;;2.22;100.00
49645;BME280;36494;50.730;-1.932;2023-03-03T00:15:52;102147.61;;;2.20;100.00
49645;BME280;36494;50.730;-1.932;2023-03-03T00:18:21;102147.58;;;2.17;100.00
49645;BME280;36494;50.730;-1.932;2023-03-03T00:20:48;102150.43;;;2.14;100.00
49645;BME280;36494;50.730;-1.932;2023-03-03T00:23:18;102149.71;;;2.13;100.00
49645;BME280;36494;50.730;-1.932;2023-03-03T00:25:33;102151.02;;;2.11;100.00
49645;BME280;36494;50.730;-1.932;2023-03-03T00:28:00;102152.49;;;2.07;100.00
49645;BME280;36494;50.730;-1.932;2023-03-03T00:30:26;102152.20;;;2.05;100.00
49645;BME280;36494;50.730;-1.932;2023-03-03T00:32:49;102149.69;;;2.00;100.00
49645;BME280;36494;50.730;-1.932;2023-03-03T00:35:24;102154.69;;;2.00;100.00
49645;BME280;36494;50.730;-1.932;2023-03-03T00:37:39;102157.85;;;1.97;100.00
49645;BME280;36494;50.730;-1.932;2023-03-03T00:40:20;102162.55;;;1.96;100.00
49645;BME280;36494;50.730;-1.932;2023-03-03T00:42:32;102165.40;;;1.93;100.00
49645;BME280;36494;50.730;-1.932;2023-03-03T00:44:56;102165.21;;;1.89;100.00
49645;BME280;36494;50.730;-1.932;2023-03-03T00:47:26;102169.05;;;1.86;100.00
49645;BME280;36494;50.730;-1.932;2023-03-03T00:49:47;102170.66;;;1.84;100.00
49645;BME280;36494;50.730;-1.932;2023-03-03T00:52:13;102171.15;;;1.81;100.00
49645;BME280;36494;50.730;-1.932;2023-03-03T00:54:39;102170.84;;;1.81;100.00
49645;BME280;36494;50.730;-1.932;2023-03-03T00:57:04;102171.89;;;1.79;100.00
49645;BME280;36494;50.730;-1.932;2023-03-03T00:59:30;102170.47;;;1.76;100.00
49645;BME280;36494;50.730;-1.932;2023-03-03T01:01:55;102170.76;;;1.74;100.00
49645;BME280;36494;50.730;-1.932;2023-03-03T01:04:20;102171.20;;;1.73;100.00
49645;BME280;36494;50.730;-1.932;2023-03-03T01:06:46;102176.12;;;1.71;100.00
49645;BME280;36494;50.730;-1.932;2023-03-03T01:09:11;102177.85;;;1.69;100.00
49645;BME280;36494;50.730;-1.932;2023-03-03T01:11:36;102187.47;;;1.66;100.00
49645;BME280;36494;50.730;-1.932;2023-03-03T01:14:02;102190.34;;;1.64;100.00
49645;BME280;36494;50.730;-1.932;2023-03-03T01:16:27;102196.05;;;1.61;100.00
49645;BME280;36494;50.730;-1.932;2023-03-03T01:18:53;102198.80;;;1.57;100.00
49645;BME280;36494;50.730;-1.932;2023-03-03T01:21:18;102198.18;;;1.54;100.00
49645;BME280;36494;50.730;-1.932;2023-03-03T01:23:44;102200.50;;;1.49;100.00
49645;BME280;36494;50.730;-1.932;2023-03-03T01:26:09;102205.49;;;1.44;100.00
49645;BME280;36494;50.730;-1.932;2023-03-03T01:28:34;102210.77;;;1.39;100.00
49645;BME280;36494;50.730;-1.932;2023-03-03T01:31:00;102216.54;;;1.34;100.00
49645;BME280;36494;50.730;-1.932;2023-03-03T01:33:25;102220.07;;;1.32;100.00
49645;BME280;36494;50.730;-1.932;2023-03-03T01:35:50;102220.02;;;1.28;100.00
49645;BME280;36494;50.730;-1.932;2023-03-03T01:38:15;102223.57;;;1.26;100.00
49645;BME280;36494;50.730;-1.932;2023-03-03T01:40:41;102222.19;;;1.26;100.00
49645;BME280;36494;50.730;-1.932;2023-03-03T01:43:06;102223.10;;;1.28;100.00
49645;BME280;36494;50.730;-1.932;2023-03-03T01:45:41;102223.14;;;1.26;100.00
49645;BME280;36494;50.730;-1.932;2023-03-03T01:47:59;102224.87;;;1.26;100.00
49645;BME280;36494;50.730;-1.932;2023-03-03T01:50:30;102222.82;;;1.26;100.00
49645;BME280;36494;50.730;-1.932;2023-03-03T01:52:47;102226.75;;;1.26;100.00
49645;BME280;36494;50.730;-1.932;2023-03-03T01:55:18;102228.96;;;1.27;100.00
49645;BME280;36494;50.730;-1.932;2023-03-03T01:57:40;102231.46;;;1.30;100.00
49645;BME280;36494;50.730;-1.932;2023-03-03T02:00:05;102227.69;;;1.32;100.00
49645;BME280;36494;50.730;-1.932;2023-03-03T02:02:29;102228.08;;;1.35;100.00
49645;BME280;36494;50.730;-1.932;2023-03-03T02:04:54;102229.28;;;1.35;100.00
49645;BME280;36494;50.730;-1.932;2023-03-03T02:07:21;102232.20;;;1.40;100.00
49645;BME280;36494;50.730;-1.932;2023-03-03T02:09:51;102238.88;;;1.42;100.00
49645;BME280;36494;50.730;-1.932;2023-03-03T02:12:12;102241.82;;;1.44;100.00
49645;BME280;36494;50.730;-1.932;2023-03-03T02:14:36;102240.88;;;1.47;100.00
49645;BME280;36494;50.730;-1.932;2023-03-03T02:17:01;102236.73;;;1.50;100.00
49645;BME280;36494;50.730;-1.932;2023-03-03T02:19:32;102237.32;;;1.54;100.00
49645;BME280;36494;50.730;-1.932;2023-03-03T02:21:52;102239.37;;;1.58;100.00
49645;BME280;36494;50.730;-1.932;2023-03-03T02:24:22;102241.10;;;1.61;100.00
49645;BME280;36494;50.730;-1.932;2023-03-03T02:26:44;102239.58;;;1.63;100.00
49645;BME280;36494;50.730;-1.932;2023-03-03T02:29:08;102241.74;;;1.65;100.00
49645;BME280;36494;50.730;-1.932;2023-03-03T02:31:33;102240.56;;;1.69;100.00
49645;BME280;36494;50.730;-1.932;2023-03-03T02:33:59;102238.93;;;1.71;100.00
49645;BME280;36494;50.730;-1.932;2023-03-03T02:36:25;102239.04;;;1.75;100.00
49645;BME280;36494;50.730;-1.932;2023-03-03T02:38:54;102236.22;;;1.79;100.00
49645;BME280;36494;50.730;-1.932;2023-03-03T02:41:20;102237.15;;;1.82;100.00
49645;BME280;36494;50.730;-1.932;2023-03-03T02:43:45;102238.23;;;1.83;100.00
49645;BME280;36494;50.730;-1.932;2023-03-03T02:46:06;102237.97;;;1.86;100.00
49645;BME280;36494;50.730;-1.932;2023-03-03T02:48:32;102237.27;;;1.90;100.00
49645;BME280;36494;50.730;-1.932;2023-03-03T02:50:57;102233.05;;;1.91;100.00
49645;BME280;36494;50.730;-1.932;2023-03-03T02:53:23;102235.32;;;1.93;100.00
49645;BME280;36494;50.730;-1.932;2023-03-03T02:55:48;102233.95;;;1.95;100.00
49645;BME280;36494;50.730;-1.932;2023-03-03T02:58:13;102234.00;;;1.98;100.00
49645;BME280;36494;50.730;-1.932;2023-03-03T03:00:39;102234.17;;;2.01;100.00
49645;BME280;36494;50.730;-1.932;2023-03-03T03:03:04;102233.97;;;2.05;100.00
49645;BME280;36494;50.730;-1.932;2023-03-03T03:05:29;102231.03;;;2.08;100.00
49645;BME280;36494;50.730;-1.932;2023-03-03T03:07:55;102228.88;;;2.10;100.00
49645;BME280;36494;50.730;-1.932;2023-03-03T03:10:20;102231.41;;;2.12;100.00
49645;BME280;36494;50.730;-1.932;2023-03-03T03:12:46;102233.63;;;2.14;100.00
49645;BME280;36494;50.730;-1.932;2023-03-03T03:15:11;102235.23;;;2.15;100.00
49645;BME280;36494;50.730;-1.932;2023-03-03T03:17:37;102232.11;;;2.18;100.00
49645;BME280;36494;50.730;-1.932;2023-03-03T03:20:02;102230.96;;;2.20;100.00
49645;BME280;36494;50.730;-1.932;2023-03-03T03:22:27;102228.68;;;2.22;100.00
49645;BME280;36494;50.730;-1.932;2023-03-03T03:24:53;102226.72;;;2.24;100.00
49645;BME280;36494;50.730;-1.932;2023-03-03T03:27:18;102225.12;;;2.25;100.00
49645;BME280;36494;50.730;-1.932;2023-03-03T03:29:43;102224.41;;;2.28;100.00
49645;BME280;36494;50.730;-1.932;2023-03-03T03:32:09;102222.75;;;2.30;100.00
49645;BME280;36494;50.730;-1.932;2023-03-03T03:34:35;102222.84;;;2.31;100.00
49645;BME280;36494;50.730;-1.932;2023-03-03T03:37:00;102223.06;;;2.33;100.00
49645;BME280;36494;50.730;-1.932;2023-03-03T03:39:25;102219.96;;;2.35;100.00
49645;BME280;36494;50.730;-1.932;2023-03-03T03:41:51;102224.74;;;2.36;100.00
49645;BME280;36494;50.730;-1.932;2023-03-03T03:44:16;102221.33;;;2.38;100.00
49645;BME280;36494;50.730;-1.932;2023-03-03T03:46:42;102219.70;;;2.40;100.00
49645;BME280;36494;50.730;-1.932;2023-03-03T03:49:07;102219.07;;;2.41;100.00
49645;BME280;36494;50.730;-1.932;2023-03-03T03:51:33;102218.42;;;2.42;100.00
49645;BME280;36494;50.730;-1.932;2023-03-03T03:53:58;102220.75;;;2.44;100.00
49645;BME280;36494;50.730;-1.932;2023-03-03T03:56:23;102220.64;;;2.45;100.00
49645;BME280;36494;50.730;-1.932;2023-03-03T03:58:48;102219.29;;;2.48;100.00
49645;BME280;36494;50.730;-1.932;2023-03-03T04:01:14;102220.46;;;2.50;100.00
49645;BME280;36494;50.730;-1.932;2023-03-03T04:03:39;102221.50;;;2.52;100.00
49645;BME280;36494;50.730;-1.932;2023-03-03T04:06:04;102221.00;;;2.54;100.00
49645;BME280;36494;50.730;-1.932;2023-03-03T04:08:30;102222.23;;;2.55;100.00
49645;BME280;36494;50.730;-1.932;2023-03-03T04:10:56;102219.68;;;2.57;100.00
49645;BME280;36494;50.730;-1.932;2023-03-03T04:13:21;102216.65;;;2.58;100.00
49645;BME280;36494;50.730;-1.932;2023-03-03T04:15:46;102218.98;;;2.60;100.00
49645;BME280;36494;50.730;-1.932;2023-03-03T04:18:12;102216.07;;;2.60;100.00
49645;BME280;36494;50.730;-1.932;2023-03-03T04:20:39;102219.59;;;2.61;100.00
49645;BME280;36494;50.730;-1.932;2023-03-03T04:23:02;102218.35;;;2.64;100.00
49645;BME280;36494;50.730;-1.932;2023-03-03T04:25:28;102216.17;;;2.65;100.00
49645;BME280;36494;50.730;-1.932;2023-03-03T04:27:53;102215.29;;;2.66;100.00
49645;BME280;36494;50.730;-1.932;2023-03-03T04:30:19;102211.95;;;2.67;100.00
49645;BME280;36494;50.730;-1.932;2023-03-03T04:32:44;102213.50;;;2.68;100.00
49645;BME280;36494;50.730;-1.932;2023-03-03T04:35:10;102213.90;;;2.72;100.00
49645;BME280;36494;50.730;-1.932;2023-03-03T04:37:36;102216.20;;;2.73;100.00
49645;BME280;36494;50.730;-1.932;2023-03-03T04:40:02;102215.94;;;2.75;100.00
49645;BME280;36494;50.730;-1.932;2023-03-03T04:42:27;102212.08;;;2.75;100.00
49645;BME280;36494;50.730;-1.932;2023-03-03T04:44:52;102213.61;;;2.77;100.00
49645;BME280;36494;50.730;-1.932;2023-03-03T04:47:18;102210.42;;;2.77;100.00
49645;BME280;36494;50.730;-1.932;2023-03-03T04:49:43;102211.16;;;2.78;100.00
49645;BME280;36494;50.730;-1.932;2023-03-03T04:52:09;102204.86;;;2.81;100.00
49645;BME280;36494;50.730;-1.932;2023-03-03T04:54:34;102202.11;;;2.82;100.00
49645;BME280;36494;50.730;-1.932;2023-03-03T04:57:00;102196.55;;;2.80;100.00
49645;BME280;36494;50.730;-1.932;2023-03-03T04:59:25;102197.14;;;2.82;100.00
49645;BME280;36494;50.730;-1.932;2023-03-03T05:01:51;102196.50;;;2.84;100.00
49645;BME280;36494;50.730;-1.932;2023-03-03T05:04:17;102194.32;;;2.85;100.00
49645;BME280;36494;50.730;-1.932;2023-03-03T05:06:42;102195.81;;;2.87;100.00
49645;BME280;36494;50.730;-1.932;2023-03-03T05:09:07;102199.36;;;2.89;100.00
49645;BME280;36494;50.730;-1.932;2023-03-03T05:11:33;102204.62;;;2.89;100.00
49645;BME280;36494;50.730;-1.932;2023-03-03T05:13:59;102206.30;;;2.91;100.00
49645;BME280;36494;50.730;-1.932;2023-03-03T05:16:24;102209.39;;;2.94;100.00
49645;BME280;36494;50.730;-1.932;2023-03-03T05:18:50;102210.04;;;2.94;100.00
49645;BME280;36494;50.730;-1.932;2023-03-03T05:21:15;102207.15;;;2.92;100.00
49645;BME280;36494;50.730;-1.932;2023-03-03T05:23:41;102207.33;;;2.94;100.00
49645;BME280;36494;50.730;-1.932;2023-03-03T05:26:06;102207.98;;;2.96;100.00
49645;BME280;36494;50.730;-1.932;2023-03-03T05:28:32;102210.70;;;2.96;100.00
49645;BME280;36494;50.730;-1.932;2023-03-03T05:30:57;102204.82;;;2.97;100.00
49645;BME280;36494;50.730;-1.932;2023-03-03T05:33:23;102204.32;;;2.93;100.00
49645;BME280;36494;50.730;-1.932;2023-03-03T05:35:52;102205.82;;;2.94;100.00
49645;BME280;36494;50.730;-1.932;2023-03-03T05:38:14;102204.83;;;2.92;100.00
49645;BME280;36494;50.730;-1.932;2023-03-03T05:40:39;102208.29;;;2.90;100.00
49645;BME280;36494;50.730;-1.932;2023-03-03T05:43:04;102208.73;;;2.92;100.00
49645;BME280;36494;50.730;-1.932;2023-03-03T05:45:30;102210.21;;;2.91;100.00
49645;BME280;36494;50.730;-1.932;2023-03-03T05:47:55;102210.90;;;2.92;100.00
49645;BME280;36494;50.730;-1.932;2023-03-03T05:50:22;102209.17;;;2.88;100.00
49645;BME280;36494;50.730;-1.932;2023-03-03T05:52:47;102210.89;;;2.90;100.00
49645;BME280;36494;50.730;-1.932;2023-03-03T05:55:12;102211.60;;;2.88;100.00
49645;BME280;36494;50.730;-1.932;2023-03-03T05:57:37;102211.11;;;2.88;100.00
49645;BME280;36494;50.730;-1.932;2023-03-03T06:00:03;102210.72;;;2.86;100.00
49645;BME280;36494;50.730;-1.932;2023-03-03T06:02:28;102211.06;;;2.83;100.00
49645;BME280;36494;50.730;-1.932;2023-03-03T06:04:53;102211.70;;;2.83;100.00
49645;BME280;36494;50.730;-1.932;2023-03-03T06:07:19;102209.21;;;2.80;100.00
49645;BME280;36494;50.730;-1.932;2023-03-03T06:09:44;102210.28;;;2.80;100.00
49645;BME280;36494;50.730;-1.932;2023-03-03T06:12:09;102212.20;;;2.74;100.00
49645;BME280;36494;50.730;-1.932;2023-03-03T06:14:35;102213.12;;;2.73;100.00
49645;BME280;36494;50.730;-1.932;2023-03-03T06:17:00;102216.84;;;2.72;100.00
49645;BME280;36494;50.730;-1.932;2023-03-03T06:19:25;102215.63;;;2.69;100.00
49645;BME280;36494;50.730;-1.932;2023-03-03T06:21:51;102215.09;;;2.66;100.00
49645;BME280;36494;50.730;-1.932;2023-03-03T06:24:17;102211.63;;;2.64;100.00
49645;BME280;36494;50.730;-1.932;2023-03-03T06:26:42;102215.16;;;2.62;100.00
49645;BME280;36494;50.730;-1.932;2023-03-03T06:29:07;102212.91;;;2.58;100.00
49645;BME280;36494;50.730;-1.932;2023-03-03T06:31:33;102213.81;;;2.55;100.00
49645;BME280;36494;50.730;-1.932;2023-03-03T06:33:58;102214.72;;;2.51;100.00
49645;BME280;36494;50.730;-1.932;2023-03-03T06:36:24;102213.19;;;2.50;100.00
49645;BME280;36494;50.730;-1.932;2023-03-03T06:38:49;102211.57;;;2.49;100.00
49645;BME280;36494;50.730;-1.932;2023-03-03T06:41:14;102212.13;;;2.47;100.00
49645;BME280;36494;50.730;-1.932;2023-03-03T06:43:40;102211.00;;;2.46;100.00
49645;BME280;36494;50.730;-1.932;2023-03-03T06:46:05;102213.88;;;2.43;100.00
49645;BME280;36494;50.730;-1.932;2023-03-03T06:48:31;102214.85;;;2.36;100.00
49645;BME280;36494;50.730;-1.932;2023-03-03T06:50:57;102214.87;;;2.36;100.00
49645;BME280;36494;50.730;-1.932;2023-03-03T06:53:21;102215.44;;;2.37;100.00
49645;BME280;36494;50.730;-1.932;2023-03-03T06:55:47;102219.26;;;2.35;100.00
49645;BME280;36494;50.730;-1.932;2023-03-03T06:58:14;102224.27;;;2.32;100.00
49645;BME280;36494;50.730;-1.932;2023-03-03T07:00:39;102229.06;;;2.31;100.00
49645;BME280;36494;50.730;-1.932;2023-03-03T07:03:10;102230.31;;;2.32;100.00
49645;BME280;36494;50.730;-1.932;2023-03-03T07:05:28;102230.89;;;2.32;100.00
49645;BME280;36494;50.730;-1.932;2023-03-03T07:07:54;102231.64;;;2.31;100.00
49645;BME280;36494;50.730;-1.932;2023-03-03T07:10:22;102230.94;;;2.30;100.00
49645;BME280;36494;50.730;-1.932;2023-03-03T07:12:45;102232.58;;;2.32;100.00
49645;BME280;36494;50.730;-1.932;2023-03-03T07:15:14;102231.38;;;2.29;100.00
49645;BME280;36494;50.730;-1.932;2023-03-03T07:17:38;102238.29;;;2.26;100.00
49645;BME280;36494;50.730;-1.932;2023-03-03T07:20:10;102238.61;;;2.27;100.00
49645;BME280;36494;50.730;-1.932;2023-03-03T07:22:27;102243.63;;;2.28;100.00
49645;BME280;36494;50.730;-1.932;2023-03-03T07:24:54;102245.73;;;2.25;100.00
49645;BME280;36494;50.730;-1.932;2023-03-03T07:27:22;102247.64;;;2.25;100.00
49645;BME280;36494;50.730;-1.932;2023-03-03T07:29:46;102250.54;;;2.24;100.00
49645;BME280;36494;50.730;-1.932;2023-03-03T07:32:21;102253.33;;;2.25;100.00
49645;BME280;36494;50.730;-1.932;2023-03-03T07:34:37;102256.04;;;2.25;100.00
49645;BME280;36494;50.730;-1.932;2023-03-03T07:37:03;102259.01;;;2.24;100.00
49645;BME280;36494;50.730;-1.932;2023-03-03T07:39:30;102263.46;;;2.24;100.00
49645;BME280;36494;50.730;-1.932;2023-03-03T07:41:51;102267.37;;;2.25;100.00
49645;BME280;36494;50.730;-1.932;2023-03-03T07:44:20;102270.93;;;2.27;100.00
49645;BME280;36494;50.730;-1.932;2023-03-03T07:46:44;102275.72;;;2.26;100.00
49645;BME280;36494;50.730;-1.932;2023-03-03T07:49:20;102279.76;;;2.29;100.00
49645;BME280;36494;50.730;-1.932;2023-03-03T07:51:37;102283.79;;;2.30;100.00
49645;BME280;36494;50.730;-1.932;2023-03-03T07:54:13;102284.33;;;2.31;100.00
49645;BME280;36494;50.730;-1.932;2023-03-03T07:56:28;102289.01;;;2.33;100.00
49645;BME280;36494;50.730;-1.932;2023-03-03T07:58:50;102292.36;;;2.33;100.00
49645;BME280;36494;50.730;-1.932;2023-03-03T08:01:25;102293.38;;;2.35;100.00
49645;BME280;36494;50.730;-1.932;2023-03-03T08:03:42;102297.77;;;2.38;100.00
49645;BME280;36494;50.730;-1.932;2023-03-03T08:08:33;102303.83;;;2.45;100.00
49645;BME280;36494;50.730;-1.932;2023-03-03T08:10:58;102306.94;;;2.47;100.00
49645;BME280;36494;50.730;-1.932;2023-03-03T08:13:25;102310.20;;;2.49;100.00
49645;BME280;36494;50.730;-1.932;2023-03-03T08:15:49;102312.20;;;2.51;100.00
49645;BME280;36494;50.730;-1.932;2023-03-03T08:18:20;102311.90;;;2.54;100.00
49645;BME280;36494;50.730;-1.932;2023-03-03T08:20:44;102309.56;;;2.57;100.00
49645;BME280;36494;50.730;-1.932;2023-03-03T08:23:04;102310.61;;;2.61;100.00
49645;BME280;36494;50.730;-1.932;2023-03-03T08:25:29;102307.13;;;2.63;100.00
49645;BME280;36494;50.730;-1.932;2023-03-03T08:27:55;102313.37;;;2.70;100.00
49645;BME280;36494;50.730;-1.932;2023-03-03T08:30:20;102314.45;;;2.72;100.00
49645;BME280;36494;50.730;-1.932;2023-03-03T08:32:45;102316.43;;;2.77;100.00
49645;BME280;36494;50.730;-1.932;2023-03-03T08:35:11;102317.21;;;2.82;100.00
49645;BME280;36494;50.730;-1.932;2023-03-03T08:37:36;102321.64;;;2.86;100.00
49645;BME280;36494;50.730;-1.932;2023-03-03T08:40:01;102324.12;;;2.90;100.00
49645;BME280;36494;50.730;-1.932;2023-03-03T08:42:27;102325.94;;;2.95;100.00
49645;BME280;36494;50.730;-1.932;2023-03-03T08:44:52;102325.84;;;3.01;100.00
49645;BME280;36494;50.730;-1.932;2023-03-03T08:47:18;102323.25;;;3.04;100.00
49645;BME280;36494;50.730;-1.932;2023-03-03T08:49:43;102325.46;;;3.10;100.00
49645;BME280;36494;50.730;-1.932;2023-03-03T08:52:09;102324.40;;;3.17;100.00
49645;BME280;36494;50.730;-1.932;2023-03-03T08:54:35;102325.17;;;3.22;100.00
49645;BME280;36494;50.730;-1.932;2023-03-03T08:57:00;102328.35;;;3.28;100.00
49645;BME280;36494;50.730;-1.932;2023-03-03T08:59:25;102328.87;;;3.34;100.00
49645;BME280;36494;50.730;-1.932;2023-03-03T09:01:51;102329.71;;;3.42;100.00
49645;BME280;36494;50.730;-1.932;2023-03-03T09:04:17;102325.95;;;3.44;100.00
49645;BME280;36494;50.730;-1.932;2023-03-03T09:06:42;102320.39;;;3.49;100.00
49645;BME280;36494;50.730;-1.932;2023-03-03T09:09:08;102326.22;;;3.54;100.00
49645;BME280;36494;50.730;-1.932;2023-03-03T09:11:34;102329.43;;;3.59;100.00
49645;BME280;36494;50.730;-1.932;2023-03-03T09:14:06;102333.99;;;3.67;100.00
49645;BME280;36494;50.730;-1.932;2023-03-03T09:16:33;102337.58;;;3.72;100.00
49645;BME280;36494;50.730;-1.932;2023-03-03T09:18:51;102336.75;;;3.77;100.00
49645;BME280;36494;50.730;-1.932;2023-03-03T09:21:20;102337.78;;;3.84;100.00
49645;BME280;36494;50.730;-1.932;2023-03-03T09:23:47;102339.07;;;3.90;100.00
49645;BME280;36494;50.730;-1.932;2023-03-03T09:26:22;102336.60;;;3.96;100.00
49645;BME280;36494;50.730;-1.932;2023-03-03T09:28:33;102338.03;;;4.02;100.00
49645;BME280;36494;50.730;-1.932;2023-03-03T09:31:00;102335.78;;;4.08;100.00
49645;BME280;36494;50.730;-1.932;2023-03-03T09:33:27;102335.29;;;4.15;100.00
49645;BME280;36494;50.730;-1.932;2023-03-03T09:35:51;102334.06;;;4.19;100.00
49645;BME280;36494;50.730;-1.932;2023-03-03T09:38:24;102335.86;;;4.25;100.00
49645;BME280;36494;50.730;-1.932;2023-03-03T09:40:50;102334.26;;;4.30;100.00
49645;BME280;36494;50.730;-1.932;2023-03-03T09:43:08;102335.03;;;4.36;100.00
49645;BME280;36494;50.730;-1.932;2023-03-03T09:45:40;102330.90;;;4.39;100.00
49645;BME280;36494;50.730;-1.932;2023-03-03T09:48:10;102332.79;;;4.46;100.00
49645;BME280;36494;50.730;-1.932;2023-03-03T09:50:30;102331.95;;;4.51;100.00
49645;BME280;36494;50.730;-1.932;2023-03-03T09:52:52;102331.34;;;4.58;100.00
49645;BME280;36494;50.730;-1.932;2023-03-03T09:55:26;102333.91;;;4.63;100.00
49645;BME280;36494;50.730;-1.932;2023-03-03T09:57:50;102330.33;;;4.67;100.00
49645;BME280;36494;50.730;-1.932;2023-03-03T10:00:16;102334.99;;;4.73;100.00
49645;BME280;36494;50.730;-1.932;2023-03-03T10:02:36;102331.48;;;4.80;100.00
49645;BME280;36494;50.730;-1.932;2023-03-03T10:05:08;102337.45;;;4.89;100.00
49645;BME280;36494;50.730;-1.932;2023-03-03T10:07:31;102335.02;;;4.96;100.00
49645;BME280;36494;50.730;-1.932;2023-03-03T10:09:57;102334.62;;;5.01;100.00
49645;BME280;36494;50.730;-1.932;2023-03-03T10:12:16;102341.16;;;5.07;100.00
49645;BME280;36494;50.730;-1.932;2023-03-03T10:14:47;102341.79;;;5.14;100.00
49645;BME280;36494;50.730;-1.932;2023-03-03T10:17:13;102341.72;;;5.27;100.00
49645;BME280;36494;50.730;-1.932;2023-03-03T10:19:37;102341.05;;;5.35;100.00
49645;BME280;36494;50.730;-1.932;2023-03-03T10:21:57;102340.78;;;5.50;100.00
49645;BME280;36494;50.730;-1.932;2023-03-03T10:24:26;102340.68;;;5.67;100.00
49645;BME280;36494;50.730;-1.932;2023-03-03T10:27:04;102341.58;;;5.65;100.00
49645;BME280;36494;50.730;-1.932;2023-03-03T10:29:16;102343.53;;;5.81;100.00
49645;BME280;36494;50.730;-1.932;2023-03-03T10:31:44;102340.20;;;5.95;100.00
49645;BME280;36494;50.730;-1.932;2023-03-03T10:34:06;102349.36;;;6.04;100.00
49645;BME280;36494;50.730;-1.932;2023-03-03T10:36:34;102348.33;;;6.14;100.00
49645;BME280;36494;50.730;-1.932;2023-03-03T10:39:00;102355.65;;;6.26;100.00
49645;BME280;36494;50.730;-1.932;2023-03-03T10:41:30;102354.16;;;6.43;100.00
49645;BME280;36494;50.730;-1.932;2023-03-03T10:43:51;102353.29;;;6.76;100.00
49645;BME280;36494;50.730;-1.932;2023-03-03T10:46:23;102356.17;;;6.64;100.00
49645;BME280;36494;50.730;-1.932;2023-03-03T10:48:41;102360.05;;;6.57;100.00
49645;BME280;36494;50.730;-1.932;2023-03-03T10:51:03;102363.39;;;6.66;100.00
49645;BME280;36494;50.730;-1.932;2023-03-03T10:53:28;102363.97;;;6.61;100.00
49645;BME280;36494;50.730;-1.932;2023-03-03T10:55:59;102364.38;;;6.64;100.00
49645;BME280;36494;50.730;-1.932;2023-03-03T10:58:26;102364.15;;;6.74;100.00
49645;BME280;36494;50.730;-1.932;2023-03-03T11:00:41;102360.97;;;7.03;100.00
49645;BME280;36494;50.730;-1.932;2023-03-03T11:05:34;102367.37;;;7.77;100.00
49645;BME280;36494;50.730;-1.932;2023-03-03T11:07:56;102366.47;;;8.19;100.00
49645;BME280;36494;50.730;-1.932;2023-03-03T11:10:28;102364.85;;;8.59;100.00
49645;BME280;36494;50.730;-1.932;2023-03-03T11:12:53;102364.19;;;8.69;100.00
49645;BME280;36494;50.730;-1.932;2023-03-03T11:15:23;102363.90;;;8.87;100.00
49645;BME280;36494;50.730;-1.932;2023-03-03T11:17:47;102367.46;;;9.07;100.00
49645;BME280;36494;50.730;-1.932;2023-03-03T11:20:05;102368.34;;;8.95;100.00
49645;BME280;36494;50.730;-1.932;2023-03-03T11:22:33;102369.30;;;8.77;100.00
49645;BME280;36494;50.730;-1.932;2023-03-03T11:25:00;102370.52;;;8.71;100.00
49645;BME280;36494;50.730;-1.932;2023-03-03T11:27:28;102374.02;;;8.66;100.00
49645;BME280;36494;50.730;-1.932;2023-03-03T11:29:53;102377.21;;;8.66;100.00
49645;BME280;36494;50.730;-1.932;2023-03-03T11:32:18;102380.29;;;8.68;100.00
49645;BME280;36494;50.730;-1.932;2023-03-03T11:34:46;102384.31;;;8.59;100.00
49645;BME280;36494;50.730;-1.932;2023-03-03T11:37:04;102384.67;;;8.51;100.00
49645;BME280;36494;50.730;-1.932;2023-03-03T11:39:25;102386.53;;;8.52;100.00
49645;BME280;36494;50.730;-1.932;2023-03-03T11:41:59;102383.93;;;8.45;100.00
49645;BME280;36494;50.730;-1.932;2023-03-03T11:44:20;102384.06;;;8.48;100.00
49645;BME280;36494;50.730;-1.932;2023-03-03T11:46:44;102383.78;;;8.46;100.00
49645;BME280;36494;50.730;-1.932;2023-03-03T11:49:10;102384.81;;;8.49;100.00
49645;BME280;36494;50.730;-1.932;2023-03-03T11:51:40;102381.35;;;8.41;100.00
49645;BME280;36494;50.730;-1.932;2023-03-03T11:53:58;102384.36;;;8.25;100.00
49645;BME280;36494;50.730;-1.932;2023-03-03T11:56:25;102381.81;;;8.33;100.00
49645;BME280;36494;50.730;-1.932;2023-03-03T11:58:54;102380.34;;;8.36;100.00
49645;BME280;36494;50.730;-1.932;2023-03-03T12:01:18;102380.31;;;8.40;100.00
49645;BME280;36494;50.730;-1.932;2023-03-03T12:03:40;102377.11;;;8.38;100.00
49645;BME280;36494;50.730;-1.932;2023-03-03T12:06:12;102379.37;;;8.28;100.00
49645;BME280;36494;50.730;-1.932;2023-03-03T12:08:39;102373.57;;;8.49;100.00
49645;BME280;36494;50.730;-1.932;2023-03-03T12:10:58;102365.29;;;8.91;100.00
49645;BME280;36494;50.730;-1.932;2023-03-03T12:13:22;102367.49;;;8.94;100.00
49645;BME280;36494;50.730;-1.932;2023-03-03T12:15:47;102365.14;;;8.89;100.00
49645;BME280;36494;50.730;-1.932;2023-03-03T12:18:27;102364.24;;;9.21;100.00
49645;BME280;36494;50.730;-1.932;2023-03-03T12:20:44;102361.57;;;9.48;100.00
49645;BME280;36494;50.730;-1.932;2023-03-03T12:23:15;102357.76;;;9.50;100.00
49645;BME280;36494;50.730;-1.932;2023-03-03T12:25:33;102353.38;;;9.75;100.00
49645;BME280;36494;50.730;-1.932;2023-03-03T12:27:58;102350.51;;;10.11;100.00
49645;BME280;36494;50.730;-1.932;2023-03-03T12:30:25;102345.56;;;10.32;100.00
49645;BME280;36494;50.730;-1.932;2023-03-03T12:32:54;102343.62;;;10.49;100.00
49645;BME280;36494;50.730;-1.932;2023-03-03T12:35:13;102344.49;;;10.75;98.80